Time;durP1;ratioP1;P1;durP2;ratioP2;P2;SDS_P1;SDS_P2;PMS_P1;PMS_P2;Temp;Humidity;BMP_temperature;BMP_pressure;BME280_temperature;BME280_humidity;BME280_pressure;Samples;Min_cycle;Max_cycle;Signal;HPM_P1;HPM_P2
2022/01/13 00:00:16;;;;;;;;;;;4.20;99.90;;;;;;5019087;28;20299;-71
2022/01/13 00:02:41;;;;;;;;;;;4.20;99.90;;;;;;5007921;28;20756;-68
2022/01/13 00:05:07;;;;;;;;;;;4.10;99.90;;;;;;5007847;28;20060;-69
2022/01/13 00:07:34;;;;;;;;;;;4.10;99.90;;;;;;5018543;28;19913;-69
2022/01/13 00:09:59;;;;;;;;;;;4.20;99.90;;;;;;5021684;28;19917;-69
2022/01/13 00:12:30;;;;;;;;;;;4.20;99.90;;;;;;5019265;28;19913;-72
2022/01/13 00:25:32;;;;;;;;;;;4.20;99.90;;;;;;5018217;28;19918;-70
2022/01/13 00:28:00;;;;;;;;;;;4.20;99.90;;;;;;5021561;28;20374;-68
2022/01/13 00:30:26;;;;;;;;;;;4.20;99.90;;;;;;5019389;28;19925;-70
2022/01/13 00:32:51;;;;;;;;;;;4.20;99.90;;;;;;5017716;28;20230;-69
2022/01/13 00:35:17;;;;;;;;;;;4.20;99.90;;;;;;5020363;28;19936;-72
2022/01/13 00:37:42;;;;;;;;;;;4.20;99.90;;;;;;5016840;28;19913;-70
2022/01/13 00:40:09;;;;;;;;;;;4.20;99.90;;;;;;5023155;28;19924;-70
2022/01/13 00:42:34;;;;;;;;;;;4.20;99.90;;;;;;5009459;28;19909;-69
2022/01/13 00:45:01;;;;;;;;;;;4.30;99.90;;;;;;4997705;28;19909;-72
2022/01/13 00:47:29;;;;;;;;;;;4.30;99.90;;;;;;5023560;28;19960;-69
2022/01/13 00:49:57;;;;;;;;;;;4.30;99.90;;;;;;5008675;28;19931;-70
2022/01/13 00:52:23;;;;;;;;;;;4.30;99.90;;;;;;5007508;28;20052;-69
2022/01/13 00:54:48;;;;;;;;;;;4.20;99.90;;;;;;4997990;28;20000;-70
2022/01/13 00:57:14;;;;;;;;;;;4.30;99.90;;;;;;5006146;28;20023;-71
2022/01/13 00:59:39;;;;;;;;;;;4.30;99.90;;;;;;5009752;28;19917;-68
2022/01/13 01:02:05;;;;;;;;;;;4.30;99.90;;;;;;5030566;28;20618;-69
2022/01/13 01:04:30;;;;;;;;;;;4.30;99.90;;;;;;5043162;28;19923;-69
2022/01/13 01:06:56;;;;;;;;;;;4.30;99.90;;;;;;5057585;28;19920;-69
2022/01/13 01:09:35;;;;;;;;;;;4.30;99.90;;;;;;5055261;28;19972;-69
2022/01/13 01:12:00;;;;;;;;;;;4.30;99.90;;;;;;5049151;28;20046;-69
2022/01/13 01:14:28;;;;;;;;;;;4.20;99.90;;;;;;5012364;28;19913;-70
2022/01/13 01:16:54;;;;;;;;;;;4.30;99.90;;;;;;5030003;28;19952;-69
2022/01/13 01:19:26;;;;;;;;;;;4.20;99.90;;;;;;5029171;28;19979;-71
2022/01/13 01:22:16;;;;;;;;;;;4.20;99.90;;;;;;5026855;28;19913;-68
2022/01/13 01:25:06;;;;;;;;;;;4.20;99.90;;;;;;5030668;28;19913;-72
2022/01/13 01:27:37;;;;;;;;;;;4.10;99.90;;;;;;5031462;28;20394;-69
2022/01/13 01:30:09;;;;;;;;;;;4.20;99.90;;;;;;5036308;28;20455;-68
2022/01/13 01:32:37;;;;;;;;;;;4.20;99.90;;;;;;5013808;28;19909;-69
2022/01/13 01:35:04;;;;;;;;;;;4.30;99.90;;;;;;5026823;28;20644;-69
2022/01/13 01:37:30;;;;;;;;;;;4.30;99.90;;;;;;5044647;28;19941;-74
2022/01/13 01:39:57;;;;;;;;;;;4.20;99.90;;;;;;5039159;28;20627;-70
2022/01/13 01:42:23;;;;;;;;;;;4.20;99.90;;;;;;5027591;28;19917;-70
2022/01/13 01:44:52;;;;;;;;;;;4.30;99.90;;;;;;5042158;28;19966;-74
2022/01/13 01:47:18;;;;;;;;;;;4.30;99.90;;;;;;5026945;28;19913;-72
2022/01/13 01:49:46;;;;;;;;;;;4.20;99.90;;;;;;5031011;28;19925;-69
2022/01/13 01:52:13;;;;;;;;;;;4.20;99.90;;;;;;5023513;28;19913;-70
2022/01/13 01:54:38;;;;;;;;;;;4.20;99.90;;;;;;5022294;28;20133;-69
2022/01/13 01:57:04;;;;;;;;;;;4.20;99.90;;;;;;5027701;28;20271;-70
2022/01/13 01:59:33;;;;;;;;;;;4.20;99.90;;;;;;5026203;28;19920;-69
2022/01/13 02:01:59;;;;;;;;;;;4.20;99.90;;;;;;5027856;28;20183;-68
2022/01/13 02:04:26;;;;;;;;;;;4.20;99.90;;;;;;5040306;28;20286;-69
2022/01/13 02:06:56;;;;;;;;;;;4.30;99.90;;;;;;5031529;28;20547;-68
2022/01/13 02:09:22;;;;;;;;;;;4.30;99.90;;;;;;5007087;28;19957;-69
2022/01/13 02:11:52;;;;;;;;;;;4.30;99.90;;;;;;5025247;28;20000;-70
2022/01/13 02:16:57;;;;;;;;;;;4.20;99.90;;;;;;5007827;28;19983;-70
2022/01/13 02:19:24;;;;;;;;;;;4.20;99.90;;;;;;5042229;28;19916;-70
2022/01/13 02:21:49;;;;;;;;;;;4.20;99.90;;;;;;5046238;28;19908;-67
2022/01/13 02:24:15;;;;;;;;;;;4.20;99.90;;;;;;5016732;28;19927;-69
2022/01/13 02:26:40;;;;;;;;;;;4.20;99.90;;;;;;5033152;28;19951;-68
2022/01/13 02:29:06;;;;;;;;;;;4.20;99.90;;;;;;5047183;28;19956;-69
2022/01/13 02:31:31;;;;;;;;;;;4.30;99.90;;;;;;5028376;28;19959;-69
2022/01/13 02:33:57;;;;;;;;;;;4.30;99.90;;;;;;5026537;28;19913;-69
2022/01/13 02:36:22;;;;;;;;;;;4.30;99.90;;;;;;5026510;28;20390;-68
2022/01/13 02:38:53;;;;;;;;;;;4.30;99.90;;;;;;5030626;28;19913;-68
2022/01/13 02:41:18;;;;;;;;;;;4.40;99.90;;;;;;5026897;28;20425;-69
2022/01/13 02:43:46;;;;;;;;;;;4.30;99.90;;;;;;5039612;28;19914;-71
2022/01/13 02:46:43;;;;;;;;;;;4.30;99.90;;;;;;5025574;28;19952;-74
2022/01/13 02:49:11;;;;;;;;;;;4.40;99.90;;;;;;5009608;28;19913;-70
2022/01/13 02:51:38;;;;;;;;;;;4.40;99.90;;;;;;5025561;28;19913;-70
2022/01/13 02:54:04;;;;;;;;;;;4.40;99.90;;;;;;5007408;28;19925;-69
2022/01/13 02:56:29;;;;;;;;;;;4.50;99.90;;;;;;5038763;28;19966;-70
2022/01/13 02:58:56;;;;;;;;;;;4.40;99.90;;;;;;5039705;28;19996;-71
2022/01/13 03:01:21;;;;;;;;;;;4.40;99.90;;;;;;5012413;28;20286;-68
2022/01/13 03:03:47;;;;;;;;;;;4.40;99.90;;;;;;5025446;28;19909;-69
2022/01/13 03:06:20;;;;;;;;;;;4.40;99.90;;;;;;5024407;28;19924;-69
2022/01/13 03:08:46;;;;;;;;;;;4.50;99.90;;;;;;5024542;28;19913;-68
2022/01/13 03:11:13;;;;;;;;;;;4.40;99.90;;;;;;5039665;28;19924;-70
2022/01/13 03:13:39;;;;;;;;;;;4.50;99.90;;;;;;5028764;28;19913;-70
2022/01/13 03:16:08;;;;;;;;;;;4.40;99.90;;;;;;5044058;28;20050;-70
2022/01/13 03:18:34;;;;;;;;;;;4.40;99.90;;;;;;5043664;28;19912;-74
2022/01/13 03:20:59;;;;;;;;;;;4.50;99.90;;;;;;5023967;28;20248;-71
2022/01/13 03:23:25;;;;;;;;;;;4.50;99.90;;;;;;5031772;28;19936;-71
2022/01/13 03:25:50;;;;;;;;;;;4.40;99.90;;;;;;5035433;28;20287;-69
2022/01/13 03:28:27;;;;;;;;;;;4.40;99.90;;;;;;5006577;28;19964;-71
2022/01/13 03:30:53;;;;;;;;;;;4.50;99.90;;;;;;5024746;28;19975;-71
2022/01/13 03:33:19;;;;;;;;;;;4.50;99.90;;;;;;5023370;28;19917;-68
2022/01/13 03:35:44;;;;;;;;;;;4.50;99.90;;;;;;5025435;28;19909;-68
2022/01/13 03:38:10;;;;;;;;;;;4.50;99.90;;;;;;5031603;28;19913;-68
2022/01/13 03:40:36;;;;;;;;;;;4.50;99.90;;;;;;5027974;28;19991;-69
2022/01/13 03:43:01;;;;;;;;;;;4.50;99.90;;;;;;5027882;28;19914;-69
2022/01/13 03:45:27;;;;;;;;;;;4.60;99.90;;;;;;5029193;28;20422;-69
2022/01/13 03:47:53;;;;;;;;;;;4.50;99.90;;;;;;5027810;28;20309;-71
2022/01/13 03:50:19;;;;;;;;;;;4.40;99.90;;;;;;5027288;28;19917;-71
2022/01/13 03:53:08;;;;;;;;;;;4.40;99.90;;;;;;4990557;28;19913;-68
2022/01/13 03:55:36;;;;;;;;;;;4.40;99.90;;;;;;5007931;28;19924;-74
2022/01/13 03:58:20;;;;;;;;;;;4.40;99.90;;;;;;5025349;28;20247;-73
2022/01/13 04:00:55;;;;;;;;;;;4.40;99.90;;;;;;5025307;28;20004;-70
2022/01/13 04:03:20;;;;;;;;;;;4.30;99.90;;;;;;5013295;28;19925;-69
2022/01/13 04:06:03;;;;;;;;;;;4.40;99.90;;;;;;5028380;28;20237;-70
2022/01/13 04:08:32;;;;;;;;;;;4.40;99.90;;;;;;5027735;28;19968;-70
2022/01/13 04:11:10;;;;;;;;;;;4.40;99.90;;;;;;5018370;28;19924;-70
2022/01/13 04:13:56;;;;;;;;;;;4.40;99.90;;;;;;5004984;28;19916;-72
2022/01/13 04:16:24;;;;;;;;;;;4.30;99.90;;;;;;5026698;28;19913;-70
2022/01/13 04:18:50;;;;;;;;;;;4.30;99.90;;;;;;5021756;28;19931;-70
2022/01/13 04:21:18;;;;;;;;;;;4.40;99.90;;;;;;5013763;28;20390;-70
2022/01/13 04:23:44;;;;;;;;;;;4.50;99.90;;;;;;5027780;28;20020;-69
2022/01/13 04:26:10;;;;;;;;;;;4.40;99.90;;;;;;5028673;28;20401;-68
2022/01/13 04:28:36;;;;;;;;;;;4.30;99.90;;;;;;5043532;28;19924;-69
2022/01/13 04:31:02;;;;;;;;;;;4.30;99.90;;;;;;5030836;28;20393;-69
2022/01/13 04:33:29;;;;;;;;;;;4.40;99.90;;;;;;5025925;28;19949;-67
2022/01/13 04:35:55;;;;;;;;;;;4.40;99.90;;;;;;5016243;28;19910;-67
2022/01/13 04:38:20;;;;;;;;;;;4.30;99.90;;;;;;5032411;28;19913;-68
2022/01/13 04:40:48;;;;;;;;;;;4.30;99.90;;;;;;5032011;28;19909;-69
2022/01/13 04:43:14;;;;;;;;;;;4.30;99.90;;;;;;5030542;28;19920;-70
2022/01/13 04:45:40;;;;;;;;;;;4.30;99.90;;;;;;5025918;28;20015;-69
2022/01/13 04:48:05;;;;;;;;;;;4.30;99.90;;;;;;5013265;28;20348;-70
2022/01/13 04:50:31;;;;;;;;;;;4.30;99.90;;;;;;5002605;28;20288;-71
2022/01/13 04:52:57;;;;;;;;;;;4.30;99.90;;;;;;5026133;28;19936;-70
2022/01/13 04:55:28;;;;;;;;;;;4.20;99.90;;;;;;5029517;28;20187;-70
2022/01/13 04:57:54;;;;;;;;;;;4.20;99.90;;;;;;5019892;28;20280;-69
2022/01/13 05:00:20;;;;;;;;;;;4.20;99.90;;;;;;5018709;28;20438;-68
2022/01/13 05:02:46;;;;;;;;;;;4.20;99.90;;;;;;5021280;28;19962;-70
2022/01/13 05:05:12;;;;;;;;;;;4.20;99.90;;;;;;5035662;28;19917;-68
2022/01/13 05:07:37;;;;;;;;;;;4.20;99.90;;;;;;5013111;28;19913;-68
2022/01/13 05:10:03;;;;;;;;;;;4.20;99.90;;;;;;5032478;28;20066;-70
2022/01/13 05:12:35;;;;;;;;;;;4.20;99.90;;;;;;5028071;28;19917;-68
2022/01/13 05:15:05;;;;;;;;;;;4.20;99.90;;;;;;5010976;28;20293;-71
2022/01/13 05:20:19;;;;;;;;;;;4.20;99.90;;;;;;5027738;28;19935;-70
2022/01/13 05:22:45;;;;;;;;;;;4.20;99.90;;;;;;5028520;28;20446;-70
2022/01/13 05:25:10;;;;;;;;;;;4.20;99.90;;;;;;5031004;28;20011;-70
2022/01/13 05:27:36;;;;;;;;;;;4.20;99.90;;;;;;5028638;28;19925;-70
2022/01/13 05:30:06;;;;;;;;;;;4.20;99.90;;;;;;5033663;28;20043;-70
2022/01/13 05:32:32;;;;;;;;;;;4.20;99.90;;;;;;5032122;28;19924;-71
2022/01/13 05:34:57;;;;;;;;;;;4.20;99.90;;;;;;5033069;28;19913;-69
2022/01/13 05:37:23;;;;;;;;;;;4.20;99.90;;;;;;5022625;28;19916;-70
2022/01/13 05:39:48;;;;;;;;;;;4.20;99.90;;;;;;5032311;28;20266;-68
2022/01/13 05:42:14;;;;;;;;;;;4.20;99.90;;;;;;5048329;28;19932;-71
2022/01/13 05:44:39;;;;;;;;;;;4.20;99.90;;;;;;5048973;28;20659;-70
2022/01/13 05:47:05;;;;;;;;;;;4.20;99.90;;;;;;5034305;28;20517;-73
2022/01/13 05:49:31;;;;;;;;;;;4.10;99.90;;;;;;5037840;28;19963;-71
2022/01/13 05:51:56;;;;;;;;;;;4.20;99.90;;;;;;5043666;28;19959;-71
2022/01/13 05:54:22;;;;;;;;;;;4.20;99.90;;;;;;5040272;28;19913;-68
2022/01/13 05:56:48;;;;;;;;;;;4.20;99.90;;;;;;5048092;28;19909;-69
2022/01/13 05:59:13;;;;;;;;;;;4.10;99.90;;;;;;5035605;28;19921;-70
2022/01/13 06:01:39;;;;;;;;;;;4.00;99.90;;;;;;5017223;28;19917;-70
2022/01/13 06:04:04;;;;;;;;;;;4.10;99.90;;;;;;5034237;28;19917;-68
2022/01/13 06:06:30;;;;;;;;;;;4.10;99.90;;;;;;5016459;28;19909;-69
2022/01/13 06:08:55;;;;;;;;;;;4.20;99.90;;;;;;5043672;28;19920;-71
2022/01/13 06:11:22;;;;;;;;;;;4.10;99.90;;;;;;5028648;28;20391;-69
2022/01/13 06:13:48;;;;;;;;;;;4.10;99.90;;;;;;5048233;28;19917;-69
2022/01/13 06:16:14;;;;;;;;;;;4.10;99.90;;;;;;5032126;28;20298;-70
2022/01/13 06:18:40;;;;;;;;;;;4.10;99.90;;;;;;5036179;28;19921;-70
2022/01/13 06:21:05;;;;;;;;;;;4.20;99.90;;;;;;5025498;28;19921;-71
2022/01/13 06:23:31;;;;;;;;;;;4.00;99.90;;;;;;5026947;28;19914;-70
2022/01/13 06:25:57;;;;;;;;;;;4.00;99.90;;;;;;5029436;28;20357;-70
2022/01/13 06:28:23;;;;;;;;;;;4.10;99.90;;;;;;5032060;28;20684;-69
2022/01/13 06:30:48;;;;;;;;;;;4.10;99.90;;;;;;5034312;28;19921;-70
2022/01/13 06:33:14;;;;;;;;;;;4.10;99.90;;;;;;5029273;28;19913;-70
2022/01/13 06:35:40;;;;;;;;;;;4.10;99.90;;;;;;5024895;28;19913;-69
2022/01/13 06:38:06;;;;;;;;;;;4.20;99.90;;;;;;5027160;28;19909;-70
2022/01/13 06:40:31;;;;;;;;;;;4.10;99.90;;;;;;5026810;28;19909;-70
2022/01/13 06:42:57;;;;;;;;;;;4.10;99.90;;;;;;5024292;28;19913;-67
2022/01/13 06:45:23;;;;;;;;;;;4.20;99.90;;;;;;5023182;28;20122;-70
2022/01/13 06:47:48;;;;;;;;;;;4.20;99.90;;;;;;5015703;28;19943;-71
2022/01/13 06:50:16;;;;;;;;;;;4.20;99.90;;;;;;4995332;28;19917;-72
2022/01/13 06:52:42;;;;;;;;;;;4.10;99.90;;;;;;5026070;28;20232;-69
2022/01/13 06:55:07;;;;;;;;;;;4.20;99.90;;;;;;5021103;28;20362;-72
2022/01/13 06:57:33;;;;;;;;;;;4.20;99.90;;;;;;5032926;28;19921;-69
2022/01/13 06:59:59;;;;;;;;;;;4.20;99.90;;;;;;5020159;28;19917;-69
2022/01/13 07:02:27;;;;;;;;;;;4.20;99.90;;;;;;5006592;28;19909;-69
2022/01/13 07:04:52;;;;;;;;;;;4.00;99.90;;;;;;4997408;28;20177;-70
2022/01/13 07:07:18;;;;;;;;;;;3.90;99.90;;;;;;4996110;28;20121;-70
2022/01/13 07:09:43;;;;;;;;;;;4.00;99.90;;;;;;5015992;28;20639;-70
2022/01/13 07:12:09;;;;;;;;;;;4.00;99.90;;;;;;5002902;28;19917;-70
2022/01/13 07:14:35;;;;;;;;;;;4.00;99.90;;;;;;5023057;28;19917;-67
2022/01/13 07:17:01;;;;;;;;;;;4.00;99.90;;;;;;5028588;28;19935;-70
2022/01/13 07:19:26;;;;;;;;;;;4.10;99.90;;;;;;5046370;28;19909;-71
2022/01/13 07:21:52;;;;;;;;;;;4.10;99.90;;;;;;5047155;28;19951;-71
2022/01/13 07:24:17;;;;;;;;;;;4.10;99.90;;;;;;5028112;28;19916;-71
2022/01/13 07:26:43;;;;;;;;;;;4.10;99.90;;;;;;5052079;28;19913;-70
2022/01/13 07:29:08;;;;;;;;;;;4.10;99.90;;;;;;5060385;28;19912;-69
2022/01/13 07:31:35;;;;;;;;;;;4.10;99.90;;;;;;5031822;28;19913;-70
2022/01/13 07:34:00;;;;;;;;;;;4.10;99.90;;;;;;5027067;28;19909;-71
2022/01/13 07:36:26;;;;;;;;;;;4.20;99.90;;;;;;5027590;28;20285;-70
2022/01/13 07:38:51;;;;;;;;;;;4.20;99.90;;;;;;5027106;28;19917;-71
2022/01/13 07:41:17;;;;;;;;;;;4.10;99.90;;;;;;5026443;28;19929;-68
2022/01/13 07:43:47;;;;;;;;;;;4.20;99.90;;;;;;5032490;28;20004;-69
2022/01/13 07:46:13;;;;;;;;;;;4.20;99.90;;;;;;5028709;28;19913;-69
2022/01/13 07:48:38;;;;;;;;;;;4.10;99.90;;;;;;5015980;28;19916;-71
2022/01/13 07:51:04;;;;;;;;;;;4.10;99.90;;;;;;5007661;28;19920;-71
2022/01/13 07:53:29;;;;;;;;;;;4.10;99.90;;;;;;5026304;28;19955;-70
2022/01/13 07:55:55;;;;;;;;;;;4.20;99.90;;;;;;5026228;28;20432;-69
2022/01/13 07:58:20;;;;;;;;;;;4.20;99.90;;;;;;5027047;28;19944;-70
2022/01/13 08:00:46;;;;;;;;;;;4.10;99.90;;;;;;5028014;28;20070;-70
2022/01/13 08:03:11;;;;;;;;;;;4.10;99.90;;;;;;5025357;28;20448;-69
2022/01/13 08:05:37;;;;;;;;;;;4.10;99.90;;;;;;5024645;28;19910;-70
2022/01/13 08:08:03;;;;;;;;;;;4.10;99.90;;;;;;5027932;28;19952;-71
2022/01/13 08:10:28;;;;;;;;;;;4.00;99.90;;;;;;5030507;28;20003;-70
2022/01/13 08:12:54;;;;;;;;;;;4.00;99.90;;;;;;5029494;28;20328;-70
2022/01/13 08:15:19;;;;;;;;;;;3.90;99.90;;;;;;5027164;28;19936;-70
2022/01/13 08:20:31;;;;;;;;;;;3.90;99.90;;;;;;5028433;28;19987;-74
2022/01/13 08:22:57;;;;;;;;;;;3.90;99.90;;;;;;5033201;28;19909;-70
2022/01/13 08:25:23;;;;;;;;;;;3.90;99.90;;;;;;5035070;28;20325;-70
2022/01/13 08:27:49;;;;;;;;;;;3.80;99.90;;;;;;5031819;28;19916;-70
2022/01/13 08:30:15;;;;;;;;;;;3.80;99.90;;;;;;5028302;28;19921;-70
2022/01/13 08:32:41;;;;;;;;;;;3.80;99.90;;;;;;5011285;28;20389;-70
2022/01/13 08:35:07;;;;;;;;;;;3.80;99.90;;;;;;5029520;28;19913;-69
2022/01/13 08:37:33;;;;;;;;;;;3.80;99.90;;;;;;5030350;28;19909;-69
2022/01/13 08:40:05;;;;;;;;;;;3.80;99.90;;;;;;5010442;28;19967;-71
2022/01/13 08:42:35;;;;;;;;;;;3.80;99.90;;;;;;5028448;28;19944;-71
2022/01/13 08:45:01;;;;;;;;;;;3.80;99.90;;;;;;5011275;28;19909;-69
2022/01/13 08:47:26;;;;;;;;;;;3.90;99.90;;;;;;5011757;28;19909;-70
2022/01/13 08:49:52;;;;;;;;;;;3.90;99.90;;;;;;5012311;28;20204;-69
2022/01/13 08:52:17;;;;;;;;;;;3.90;99.90;;;;;;5027938;28;20106;-70
2022/01/13 08:54:46;;;;;;;;;;;4.00;99.90;;;;;;5025140;28;19963;-70
2022/01/13 08:57:12;;;;;;;;;;;4.00;99.90;;;;;;5029631;28;20371;-71
2022/01/13 08:59:38;;;;;;;;;;;4.00;99.90;;;;;;5031914;28;19948;-70
2022/01/13 09:02:03;;;;;;;;;;;3.90;99.90;;;;;;5030397;28;19913;-70
2022/01/13 09:04:29;;;;;;;;;;;4.00;99.90;;;;;;5032338;28;20548;-71
2022/01/13 09:06:57;;;;;;;;;;;4.10;99.90;;;;;;5031390;28;19909;-70
2022/01/13 09:09:23;;;;;;;;;;;4.10;99.90;;;;;;5029654;28;19910;-71
2022/01/13 09:11:48;;;;;;;;;;;4.10;99.90;;;;;;5027114;28;19944;-71
2022/01/13 09:14:15;;;;;;;;;;;4.10;99.90;;;;;;5027407;28;19921;-69
2022/01/13 09:16:42;;;;;;;;;;;4.10;99.90;;;;;;5028206;28;20004;-71
2022/01/13 09:19:09;;;;;;;;;;;4.10;99.90;;;;;;5027733;28;19964;-70
2022/01/13 09:21:37;;;;;;;;;;;4.10;99.90;;;;;;5030002;28;19948;-70
2022/01/13 09:24:03;;;;;;;;;;;4.20;99.90;;;;;;5028110;28;20034;-69
2022/01/13 09:26:29;;;;;;;;;;;4.20;99.90;;;;;;5028507;28;19975;-70
2022/01/13 09:28:54;;;;;;;;;;;4.30;99.90;;;;;;5030485;28;19913;-70
2022/01/13 09:31:20;;;;;;;;;;;4.20;99.90;;;;;;5030811;28;19979;-70
2022/01/13 09:33:45;;;;;;;;;;;4.20;99.90;;;;;;5028759;28;19909;-68
2022/01/13 09:36:11;;;;;;;;;;;4.30;99.90;;;;;;5012116;28;20378;-70
2022/01/13 09:38:37;;;;;;;;;;;4.30;99.90;;;;;;5031151;28;19948;-71
2022/01/13 09:41:03;;;;;;;;;;;4.30;99.90;;;;;;5030485;28;19944;-69
2022/01/13 09:43:28;;;;;;;;;;;4.40;99.90;;;;;;5029382;28;19917;-68
2022/01/13 09:45:55;;;;;;;;;;;4.40;99.90;;;;;;5012339;28;19917;-69
2022/01/13 09:48:20;;;;;;;;;;;4.40;99.90;;;;;;5032374;28;19977;-71
2022/01/13 09:50:46;;;;;;;;;;;4.40;99.90;;;;;;5029076;28;20007;-71
2022/01/13 09:53:12;;;;;;;;;;;4.50;99.90;;;;;;5035880;28;19909;-69
2022/01/13 09:55:38;;;;;;;;;;;4.50;99.90;;;;;;5051411;28;19920;-68
2022/01/13 09:58:10;;;;;;;;;;;4.60;99.90;;;;;;5051590;28;19913;-70
2022/01/13 10:00:37;;;;;;;;;;;4.50;99.90;;;;;;5061339;28;19919;-68
2022/01/13 10:03:16;;;;;;;;;;;4.50;99.90;;;;;;5061515;28;19919;-70
2022/01/13 10:05:48;;;;;;;;;;;4.50;99.90;;;;;;5029749;28;19940;-70
2022/01/13 10:08:14;;;;;;;;;;;4.60;99.90;;;;;;5048132;28;19918;-71
2022/01/13 10:10:39;;;;;;;;;;;4.70;99.90;;;;;;5046658;28;19919;-69
2022/01/13 10:13:09;;;;;;;;;;;4.60;99.90;;;;;;5039499;28;19956;-68
2022/01/13 10:18:36;;;;;;;;;;;4.60;99.90;;;;;;5026985;28;19919;-70
2022/01/13 10:21:06;;;;;;;;;;;4.60;99.90;;;;;;5031316;28;19909;-71
2022/01/13 10:23:31;;;;;;;;;;;4.60;99.90;;;;;;5047931;28;20046;-70
2022/01/13 10:26:06;;;;;;;;;;;4.70;99.90;;;;;;5049276;28;20410;-70
2022/01/13 10:28:32;;;;;;;;;;;4.80;99.90;;;;;;5049653;28;20012;-71
2022/01/13 10:30:57;;;;;;;;;;;4.70;99.90;;;;;;5033113;28;20003;-70
2022/01/13 10:33:24;;;;;;;;;;;4.70;99.90;;;;;;5027738;28;20018;-69
2022/01/13 10:35:51;;;;;;;;;;;4.70;99.90;;;;;;5012253;28;19908;-72
2022/01/13 10:38:17;;;;;;;;;;;4.80;99.90;;;;;;5046150;28;19913;-68
2022/01/13 10:40:46;;;;;;;;;;;4.70;99.90;;;;;;5029595;28;20157;-71
2022/01/13 10:43:11;;;;;;;;;;;4.70;99.90;;;;;;5047939;28;19948;-68
2022/01/13 10:45:48;;;;;;;;;;;4.70;99.90;;;;;;5048299;28;19944;-72
2022/01/13 10:48:14;;;;;;;;;;;4.70;99.90;;;;;;5049122;28;19917;-71
2022/01/13 10:50:40;;;;;;;;;;;4.70;99.90;;;;;;5030190;28;19912;-69
2022/01/13 10:53:07;;;;;;;;;;;4.70;99.90;;;;;;5048667;28;19912;-70
2022/01/13 10:55:35;;;;;;;;;;;4.70;99.90;;;;;;5030150;28;20305;-69
2022/01/13 10:58:00;;;;;;;;;;;4.70;99.90;;;;;;5047950;28;19940;-69
2022/01/13 11:00:27;;;;;;;;;;;4.80;99.90;;;;;;5047435;28;19948;-70
2022/01/13 11:02:59;;;;;;;;;;;4.90;99.90;;;;;;5045763;28;20003;-69
2022/01/13 11:05:25;;;;;;;;;;;4.80;99.90;;;;;;5047247;28;20340;-69
2022/01/13 11:07:51;;;;;;;;;;;4.80;99.90;;;;;;5048089;28;19916;-70
2022/01/13 11:10:16;;;;;;;;;;;4.80;99.90;;;;;;5050266;28;19925;-69
2022/01/13 11:12:44;;;;;;;;;;;4.70;99.90;;;;;;5049654;28;19909;-70
2022/01/13 11:15:14;;;;;;;;;;;4.70;99.90;;;;;;5047150;28;20000;-70
2022/01/13 11:17:40;;;;;;;;;;;4.70;99.90;;;;;;5047476;28;20409;-68
2022/01/13 11:20:07;;;;;;;;;;;4.70;99.90;;;;;;5027371;28;19909;-70
2022/01/13 11:22:35;;;;;;;;;;;4.80;99.90;;;;;;5045531;28;19916;-68
2022/01/13 11:25:04;;;;;;;;;;;4.70;99.90;;;;;;5028104;28;19909;-69
2022/01/13 11:27:30;;;;;;;;;;;4.70;99.90;;;;;;5046751;28;19909;-68
2022/01/13 11:29:56;;;;;;;;;;;4.70;99.90;;;;;;5021724;28;19924;-69
2022/01/13 11:32:21;;;;;;;;;;;4.80;99.90;;;;;;5028559;28;19913;-72
2022/01/13 11:34:47;;;;;;;;;;;5.00;99.90;;;;;;5013030;28;19909;-72
2022/01/13 11:37:14;;;;;;;;;;;5.00;99.90;;;;;;5029245;28;20281;-70
2022/01/13 11:39:43;;;;;;;;;;;4.90;99.90;;;;;;5029218;28;20461;-70
2022/01/13 11:42:10;;;;;;;;;;;5.00;99.90;;;;;;5028604;28;20394;-69
2022/01/13 11:44:36;;;;;;;;;;;4.90;99.90;;;;;;5026492;28;19909;-69
2022/01/13 11:47:08;;;;;;;;;;;4.90;99.90;;;;;;5026317;28;19910;-69
2022/01/13 11:49:45;;;;;;;;;;;5.00;99.90;;;;;;5025334;28;20437;-70
2022/01/13 11:54:37;;;;;;;;;;;4.90;99.90;;;;;;5039982;28;20003;-69
2022/01/13 11:57:14;;;;;;;;;;;5.00;99.90;;;;;;5045723;28;19909;-69
2022/01/13 11:59:46;;;;;;;;;;;5.10;99.90;;;;;;5029466;28;20470;-69
2022/01/13 12:02:22;;;;;;;;;;;5.10;99.90;;;;;;5029091;28;20027;-69
2022/01/13 12:04:59;;;;;;;;;;;5.20;99.90;;;;;;5047161;28;19909;-69
2022/01/13 12:07:38;;;;;;;;;;;5.20;99.90;;;;;;5027811;28;19909;-69
2022/01/13 12:10:05;;;;;;;;;;;5.10;99.90;;;;;;5027810;28;19913;-69
2022/01/13 12:12:31;;;;;;;;;;;5.20;99.90;;;;;;5028024;28;19947;-69
2022/01/13 12:15:16;;;;;;;;;;;5.20;99.90;;;;;;5027897;28;20430;-69
2022/01/13 12:18:04;;;;;;;;;;;5.30;99.90;;;;;;5029143;28;19913;-70
2022/01/13 12:20:46;;;;;;;;;;;5.20;99.90;;;;;;5027692;28;19909;-70
2022/01/13 12:23:30;;;;;;;;;;;5.20;99.90;;;;;;5028470;28;19915;-70
2022/01/13 12:25:56;;;;;;;;;;;5.20;99.90;;;;;;5027599;28;20046;-70
2022/01/13 12:28:26;;;;;;;;;;;5.20;99.90;;;;;;5031235;28;19909;-69
2022/01/13 12:30:52;;;;;;;;;;;5.10;99.90;;;;;;5025498;28;19924;-70
2022/01/13 12:33:30;;;;;;;;;;;5.00;99.90;;;;;;5028902;28;19909;-70
2022/01/13 12:35:56;;;;;;;;;;;5.00;99.90;;;;;;5032996;28;19953;-69
2022/01/13 12:38:22;;;;;;;;;;;5.00;99.90;;;;;;5040637;28;19909;-69
2022/01/13 12:40:54;;;;;;;;;;;5.00;99.90;;;;;;5053554;28;20224;-69
2022/01/13 12:44:19;;;;;;;;;;;5.00;99.90;;;;;;5030545;28;20148;-70
2022/01/13 12:46:11;;;;;;;;;;;5.10;99.90;;;;;;5024450;28;20000;-69
2022/01/13 12:48:38;;;;;;;;;;;5.10;99.90;;;;;;5030760;28;19960;-69
2022/01/13 12:51:03;;;;;;;;;;;5.20;99.90;;;;;;5029040;28;19967;-70
2022/01/13 12:53:31;;;;;;;;;;;5.20;99.90;;;;;;5029896;28;19913;-70
2022/01/13 12:55:56;;;;;;;;;;;5.20;99.90;;;;;;5027918;28;19918;-67
2022/01/13 12:58:22;;;;;;;;;;;5.30;99.90;;;;;;5030839;28;19909;-69
2022/01/13 13:00:48;;;;;;;;;;;5.30;99.90;;;;;;5026923;28;19917;-69
2022/01/13 13:03:13;;;;;;;;;;;5.30;99.90;;;;;;5025185;28;20337;-71
2022/01/13 13:05:39;;;;;;;;;;;5.30;99.90;;;;;;5025412;28;19913;-70
2022/01/13 13:08:06;;;;;;;;;;;5.40;99.90;;;;;;5026351;28;19909;-70
2022/01/13 13:10:32;;;;;;;;;;;5.50;99.90;;;;;;5024949;28;19917;-69
2022/01/13 13:12:58;;;;;;;;;;;5.50;99.90;;;;;;5024367;28;20050;-70
2022/01/13 13:17:50;;;;;;;;;;;5.40;99.90;;;;;;5027123;28;19986;-69
2022/01/13 13:20:26;;;;;;;;;;;5.40;99.90;;;;;;5025084;28;19919;-70
2022/01/13 13:22:55;;;;;;;;;;;5.30;99.90;;;;;;5025269;28;20290;-68
2022/01/13 13:25:26;;;;;;;;;;;5.30;99.90;;;;;;5027083;28;19913;-69
2022/01/13 13:27:52;;;;;;;;;;;5.40;99.90;;;;;;5026652;28;19916;-68
2022/01/13 13:30:17;;;;;;;;;;;5.30;99.90;;;;;;5027430;28;19921;-68
2022/01/13 13:32:50;;;;;;;;;;;5.20;99.90;;;;;;5027991;28;19913;-67
2022/01/13 13:35:16;;;;;;;;;;;5.30;99.90;;;;;;5029214;28;19967;-73
2022/01/13 13:37:45;;;;;;;;;;;5.30;99.90;;;;;;5028207;28;20047;-68
2022/01/13 13:40:23;;;;;;;;;;;5.30;99.90;;;;;;5024421;28;19909;-70
2022/01/13 13:42:58;;;;;;;;;;;5.20;99.90;;;;;;5026577;28;19955;-70
2022/01/13 13:45:24;;;;;;;;;;;5.20;99.90;;;;;;5027113;28;19917;-69
2022/01/13 13:47:53;;;;;;;;;;;5.30;99.90;;;;;;5026156;28;19909;-69
2022/01/13 13:50:18;;;;;;;;;;;5.30;99.90;;;;;;5025216;28;20041;-68
2022/01/13 13:52:46;;;;;;;;;;;5.40;99.90;;;;;;5027470;28;20000;-70
2022/01/13 13:55:11;;;;;;;;;;;5.30;99.90;;;;;;5027125;28;19917;-70
2022/01/13 13:57:39;;;;;;;;;;;5.10;99.90;;;;;;5025271;28;19913;-72
2022/01/13 14:00:08;;;;;;;;;;;5.20;99.90;;;;;;5026800;28;20452;-66
2022/01/13 14:02:36;;;;;;;;;;;5.20;99.90;;;;;;5026608;28;20271;-72
2022/01/13 14:05:04;;;;;;;;;;;5.20;99.90;;;;;;5025474;28;20028;-70
2022/01/13 14:07:32;;;;;;;;;;;5.30;99.90;;;;;;5026995;28;19915;-71
2022/01/13 14:10:03;;;;;;;;;;;5.20;99.90;;;;;;5027364;28;19909;-68
2022/01/13 14:12:32;;;;;;;;;;;5.20;99.90;;;;;;5027167;28;19914;-71
2022/01/13 14:15:16;;;;;;;;;;;5.20;99.90;;;;;;5026616;28;20237;-68
2022/01/13 14:17:42;;;;;;;;;;;5.20;99.90;;;;;;5024625;28;20386;-70
2022/01/13 14:20:12;;;;;;;;;;;5.20;99.90;;;;;;5025388;28;19952;-68
2022/01/13 14:22:38;;;;;;;;;;;5.20;99.90;;;;;;5026750;28;19909;-71
2022/01/13 14:25:11;;;;;;;;;;;5.20;99.90;;;;;;5026317;28;20406;-70
2022/01/13 14:27:48;;;;;;;;;;;5.20;99.90;;;;;;5027214;28;19920;-70
2022/01/13 14:30:23;;;;;;;;;;;5.30;99.90;;;;;;5040415;28;19927;-70
2022/01/13 14:32:49;;;;;;;;;;;5.20;99.90;;;;;;5041611;28;20016;-70
2022/01/13 14:35:14;;;;;;;;;;;5.20;99.90;;;;;;5013188;28;19913;-69
2022/01/13 14:37:52;;;;;;;;;;;5.20;99.90;;;;;;5046425;28;19913;-68
2022/01/13 14:40:18;;;;;;;;;;;5.30;99.90;;;;;;5046845;28;20428;-70
2022/01/13 14:42:45;;;;;;;;;;;5.40;99.90;;;;;;5030596;28;19912;-69
2022/01/13 14:45:29;;;;;;;;;;;5.40;99.90;;;;;;5030237;28;19909;-71
2022/01/13 14:47:54;;;;;;;;;;;5.40;99.90;;;;;;5050276;28;19917;-69
2022/01/13 14:50:20;;;;;;;;;;;5.40;99.90;;;;;;5030222;28;20485;-73
2022/01/13 14:52:47;;;;;;;;;;;5.30;99.90;;;;;;5049388;28;19908;-72
2022/01/13 14:55:12;;;;;;;;;;;5.30;99.90;;;;;;5051421;28;19923;-70
2022/01/13 14:57:38;;;;;;;;;;;5.30;99.90;;;;;;5049802;28;19908;-69
2022/01/13 15:00:04;;;;;;;;;;;5.20;99.90;;;;;;5051649;28;19909;-70